Time;durP1;ratioP1;P1;durP2;ratioP2;P2;SDS_P1;SDS_P2;PMS_P1;PMS_P2;Temp;Humidity;BMP_temperature;BMP_pressure;BME280_temperature;BME280_humidity;BME280_pressure;Samples;Min_cycle;Max_cycle;Signal;HPM_P1;HPM_P2
2022/07/06 00:01:38;;;;;;;2.40;2.30;;;18.60;1.00;;;;;;5062946;28;20416;-75
2022/07/06 00:04:04;;;;;;;4.90;2.50;;;18.60;1.00;;;;;;5086377;28;20174;-74
2022/07/06 00:06:30;;;;;;;4.50;2.43;;;18.60;1.00;;;;;;5072964;28;20818;-75
2022/07/06 00:08:58;;;;;;;2.90;2.53;;;18.60;1.00;;;;;;5065204;28;20416;-75
2022/07/06 00:12:03;;;;;;;4.90;2.77;;;18.50;1.00;;;;;;5081082;28;20895;-78
2022/07/06 00:21:12;;;;;;;4.93;2.60;;;18.40;1.00;;;;;;5065698;28;20457;-80
2022/07/06 00:24:27;;;;;;;3.60;2.90;;;18.30;1.00;;;;;;5070044;28;20413;-78
2022/07/06 00:30:15;;;;;;;5.90;2.70;;;18.30;1.00;;;;;;5063355;28;20547;-78
2022/07/06 00:33:24;;;;;;;6.30;2.50;;;18.20;1.00;;;;;;5062815;28;20508;-78
2022/07/06 00:35:50;;;;;;;4.00;2.80;;;18.20;1.00;;;;;;5073534;28;20241;-78
2022/07/06 00:41:37;;;;;;;3.90;3.07;;;18.20;1.00;;;;;;5069235;28;20190;-75
2022/07/06 00:44:08;;;;;;;2.60;2.40;;;18.10;1.00;;;;;;5070044;28;20799;-75
2022/07/06 00:46:34;;;;;;;4.87;2.87;;;18.20;1.00;;;;;;5088077;28;20415;-75
2022/07/06 00:49:04;;;;;;;7.03;2.60;;;18.10;1.00;;;;;;5081402;28;20406;-75
2022/07/06 00:51:40;;;;;;;4.93;2.53;;;18.00;1.00;;;;;;5067171;28;20204;-75
2022/07/06 00:54:22;;;;;;;7.00;2.67;;;18.00;1.00;;;;;;5056283;28;20425;-75
2022/07/06 00:57:10;;;;;;;4.90;2.80;;;17.90;1.00;;;;;;5075299;28;20394;-75
2022/07/06 00:59:36;;;;;;;5.30;2.80;;;17.80;1.00;;;;;;5064998;28;20410;-74
2022/07/06 01:02:10;;;;;;;2.67;2.47;;;17.80;1.00;;;;;;5073697;28;20479;-75
2022/07/06 01:04:36;;;;;;;8.80;3.50;;;17.70;1.00;;;;;;5064714;28;20440;-75
2022/07/06 01:07:02;;;;;;;3.13;2.90;;;17.70;1.00;;;;;;5092823;28;20441;-75
2022/07/06 01:09:28;;;;;;;3.13;2.83;;;17.60;1.00;;;;;;5085932;28;20182;-75
2022/07/06 01:12:04;;;;;;;4.40;3.30;;;17.50;1.00;;;;;;5072814;28;20433;-75
2022/07/06 01:14:31;;;;;;;6.30;2.63;;;17.50;1.00;;;;;;5055524;28;20815;-75
2022/07/06 01:16:57;;;;;;;3.50;3.10;;;17.40;1.00;;;;;;5062487;28;20403;-75
2022/07/06 01:19:23;;;;;;;6.97;2.80;;;17.40;1.00;;;;;;5075608;28;20504;-75
2022/07/06 01:21:52;;;;;;;7.00;3.20;;;17.30;1.00;;;;;;5067043;28;20413;-75
2022/07/06 01:24:28;;;;;;;5.13;3.10;;;17.30;1.00;;;;;;5083940;28;20647;-75
2022/07/06 01:27:10;;;;;;;5.90;2.90;;;17.30;1.00;;;;;;5056137;28;20408;-79
2022/07/06 01:29:36;;;;;;;5.00;2.93;;;17.30;1.00;;;;;;5068885;28;20411;-78
2022/07/06 01:32:02;;;;;;;4.70;2.80;;;17.20;1.00;;;;;;5064018;28;20411;-78
2022/07/06 01:37:49;;;;;;;4.20;2.90;;;17.10;1.00;;;;;;5075178;28;20431;-78
2022/07/06 01:40:16;;;;;;;7.67;2.90;;;17.10;1.00;;;;;;5072106;28;20505;-77
2022/07/06 01:42:46;;;;;;;5.13;2.67;;;17.10;1.00;;;;;;5075485;28;20201;-75
2022/07/06 01:45:16;;;;;;;5.00;3.00;;;17.00;1.00;;;;;;5068709;28;20916;-75
2022/07/06 01:47:42;;;;;;;3.20;2.90;;;17.00;1.00;;;;;;5073312;28;20449;-75
2022/07/06 01:50:10;;;;;;;2.90;2.60;;;17.10;1.00;;;;;;5084242;28;20412;-75
2022/07/06 01:52:40;;;;;;;3.90;2.83;;;17.10;1.00;;;;;;5079833;28;20237;-75
2022/07/06 01:55:06;;;;;;;5.30;2.77;;;17.10;1.00;;;;;;5082929;28;20520;-75
2022/07/06 01:57:32;;;;;;;6.57;2.47;;;17.10;1.00;;;;;;5089028;28;20762;-75
2022/07/06 01:59:58;;;;;;;7.70;3.00;;;17.10;1.00;;;;;;5077204;28;20440;-75
2022/07/06 02:02:28;;;;;;;6.20;2.90;;;17.00;1.00;;;;;;5056243;28;20690;-75
2022/07/06 02:04:58;;;;;;;3.90;2.30;;;17.00;1.00;;;;;;5070976;28;20212;-75
2022/07/06 02:07:28;;;;;;;6.17;2.57;;;17.00;1.00;;;;;;5054802;28;20422;-75
2022/07/06 02:09:58;;;;;;;2.90;2.70;;;17.00;1.00;;;;;;5072809;28;20814;-75
2022/07/06 02:12:28;;;;;;;3.60;2.33;;;17.00;1.00;;;;;;5087347;28;20833;-75
2022/07/06 02:14:58;;;;;;;5.23;2.40;;;17.00;1.00;;;;;;5070175;28;20482;-75
2022/07/06 02:17:24;;;;;;;3.10;2.50;;;17.00;1.00;;;;;;5084904;28;20793;-75
2022/07/06 02:19:50;;;;;;;9.13;2.57;;;16.90;1.00;;;;;;5078535;28;20425;-75
2022/07/06 02:22:28;;;;;;;3.10;2.90;;;16.90;1.00;;;;;;5083411;28;20175;-75
2022/07/06 02:24:54;;;;;;;5.67;2.40;;;16.90;1.00;;;;;;5079662;28;20211;-75
2022/07/06 02:27:22;;;;;;;3.10;2.40;;;16.80;1.00;;;;;;5074903;28;20879;-76
2022/07/06 02:29:48;;;;;;;2.60;2.40;;;16.70;1.00;;;;;;5065119;28;20184;-75
2022/07/06 02:32:13;;;;;;;4.10;2.70;;;16.70;1.00;;;;;;5083615;28;20388;-75
2022/07/06 02:34:39;;;;;;;4.20;2.63;;;16.60;1.00;;;;;;5074302;28;20224;-75
2022/07/06 02:37:05;;;;;;;4.20;2.60;;;16.50;1.00;;;;;;5063380;28;20197;-76
2022/07/06 02:39:34;;;;;;;5.80;3.00;;;16.50;1.00;;;;;;5068852;28;20224;-75
2022/07/06 02:42:04;;;;;;;6.30;2.77;;;16.50;1.00;;;;;;5088832;28;20195;-75
2022/07/06 02:44:34;;;;;;;5.97;2.77;;;16.50;1.00;;;;;;5066833;28;20982;-75
2022/07/06 02:47:00;;;;;;;4.90;2.40;;;16.50;1.00;;;;;;5078468;28;20499;-75
2022/07/06 02:49:28;;;;;;;2.97;2.70;;;16.40;1.00;;;;;;5084753;28;20412;-75
2022/07/06 02:51:54;;;;;;;5.07;2.97;;;16.40;1.00;;;;;;5073868;28;20229;-76
2022/07/06 02:54:28;;;;;;;6.70;3.00;;;16.30;1.00;;;;;;5079627;28;20513;-75
2022/07/06 02:56:58;;;;;;;4.97;2.97;;;16.30;1.00;;;;;;5080439;28;20545;-79
2022/07/06 02:59:58;;;;;;;6.23;2.70;;;16.20;1.00;;;;;;5073731;28;20898;-78
2022/07/06 03:06:22;;;;;;;14.00;2.90;;;16.00;1.00;;;;;;5060344;28;20937;-78
2022/07/06 03:12:09;;;;;;;4.33;2.90;;;15.80;1.00;;;;;;5059455;28;20416;-76
2022/07/06 03:14:35;;;;;;;5.30;2.50;;;15.80;1.00;;;;;;5061286;28;20913;-75
2022/07/06 03:17:04;;;;;;;5.20;3.13;;;15.70;1.00;;;;;;5072754;28;20214;-75
2022/07/06 03:19:34;;;;;;;3.63;3.30;;;15.70;1.00;;;;;;5073785;28;20248;-76
2022/07/06 03:22:00;;;;;;;3.23;2.93;;;15.70;1.00;;;;;;5053700;28;20499;-76
2022/07/06 03:24:26;;;;;;;7.67;3.10;;;15.70;1.00;;;;;;5054227;28;20934;-75
2022/07/06 03:26:52;;;;;;;3.37;3.00;;;15.60;1.00;;;;;;5067244;28;20414;-75
2022/07/06 03:29:22;;;;;;;8.13;3.17;;;15.60;1.00;;;;;;5086936;28;20231;-75
2022/07/06 03:31:52;;;;;;;2.90;2.70;;;15.50;1.00;;;;;;5064783;28;20396;-75
2022/07/06 03:34:34;;;;;;;4.60;2.97;;;15.50;1.00;;;;;;5063425;28;20414;-76
2022/07/06 03:37:00;;;;;;;5.00;2.80;;;15.40;1.00;;;;;;5083223;28;20735;-76
2022/07/06 03:39:40;;;;;;;6.63;3.37;;;15.30;1.00;;;;;;5074428;28;20402;-76
2022/07/06 03:42:52;;;;;;;4.13;2.80;;;15.40;1.00;;;;;;5065681;28;20523;-79
2022/07/06 03:45:34;;;;;;;5.90;2.77;;;15.30;1.00;;;;;;5054127;28;20463;-79
2022/07/06 03:54:43;;;;;;;3.90;2.77;;;15.20;1.00;;;;;;5066547;28;20525;-79
2022/07/06 04:00:58;;;;;;;5.60;3.73;;;15.20;1.00;;;;;;5063371;28;20194;-79
2022/07/06 04:10:28;;;;;;;8.10;3.33;;;15.10;1.00;;;;;;5058171;28;20433;-79
2022/07/06 04:13:28;;;;;;;6.73;3.23;;;15.20;1.00;;;;;;5065639;28;20421;-79
2022/07/06 04:16:05;;;;;;;7.27;3.40;;;15.20;1.00;;;;;;5068233;28;20420;-79
2022/07/06 04:22:28;;;;;;;5.10;2.93;;;15.20;1.00;;;;;;5056671;28;20376;-79
2022/07/06 04:24:58;;;;;;;2.97;2.70;;;15.30;1.00;;;;;;5070752;28;20500;-79
2022/07/06 04:30:47;;;;;;;4.53;2.73;;;15.30;1.00;;;;;;5060484;28;20439;-78
2022/07/06 04:33:25;;;;;;;4.30;2.43;;;15.30;1.00;;;;;;5076568;28;20390;-79
2022/07/06 04:35:50;;;;;;;5.33;2.43;;;15.40;1.00;;;;;;5082253;28;20458;-79
2022/07/06 04:38:17;;;;;;;2.70;2.50;;;15.50;1.00;;;;;;5068947;28;20406;-79
2022/07/06 04:44:28;;;;;;;5.17;2.60;;;15.50;1.00;;;;;;5092983;28;20441;-79
2022/07/06 04:47:28;;;;;;;6.30;2.10;;;15.60;1.00;;;;;;5078338;28;20403;-79
2022/07/06 04:49:58;;;;;;;2.40;2.20;;;15.70;1.00;;;;;;5065251;28;20413;-79
2022/07/06 04:52:28;;;;;;;5.83;2.93;;;15.80;1.00;;;;;;5073321;28;20471;-86
2022/07/06 04:54:58;;;;;;;6.43;2.20;;;15.90;1.00;;;;;;5075205;28;20445;-86
2022/07/06 04:57:29;;;;;;;10.67;2.20;;;15.90;1.00;;;;;;5073221;28;20504;-77
2022/07/06 04:59:58;;;;;;;10.73;1.93;;;16.20;1.00;;;;;;5076141;28;20418;-77
2022/07/06 05:02:28;;;;;;;5.83;2.60;;;16.10;1.00;;;;;;5056274;28;20933;-77
2022/07/06 05:04:58;;;;;;;2.43;2.23;;;16.20;1.00;;;;;;5069359;28;20939;-77
2022/07/06 05:07:30;;;;;;;5.17;2.20;;;16.20;1.00;;;;;;5063034;28;20398;-77
2022/07/06 05:10:28;;;;;;;4.30;2.30;;;16.30;1.00;;;;;;5075601;28;20477;-77
2022/07/06 05:12:58;;;;;;;11.60;3.23;;;16.40;1.00;;;;;;5076083;28;20785;-79
2022/07/06 05:15:58;;;;;;;5.40;2.50;;;16.40;1.00;;;;;;5062101;28;20926;-78
2022/07/06 05:18:58;;;;;;;21.03;3.20;;;16.40;1.00;;;;;;5062048;28;20381;-78
2022/07/06 05:21:28;;;;;;;5.30;3.07;;;16.60;1.00;;;;;;5069011;28;20496;-78
2022/07/06 05:23:58;;;;;;;3.60;2.80;;;16.80;1.00;;;;;;5075389;28;20474;-78
2022/07/06 05:26:46;;;;;;;18.17;3.20;;;16.90;1.00;;;;;;5058395;28;20498;-79
2022/07/06 05:29:12;;;;;;;5.73;3.00;;;17.00;1.00;;;;;;5069454;28;20464;-86
2022/07/06 05:31:58;;;;;;;21.87;3.10;;;17.10;1.00;;;;;;5074482;28;21125;-86
2022/07/06 05:37:46;;;;;;;7.33;3.03;;;17.30;1.00;;;;;;5096497;28;20739;-96
2022/07/06 05:40:40;;;;;;;10.63;3.03;;;17.70;1.00;;;;;;5096594;28;20388;-96
2022/07/06 05:43:10;;;;;;;3.10;2.80;;;18.00;1.00;;;;;;5076894;28;20455;-79
2022/07/06 05:46:28;;;;;;;3.03;2.37;;;18.30;1.00;;;;;;5073253;28;20436;-79
2022/07/06 05:52:28;;;;;;;6.67;2.80;;;18.90;1.00;;;;;;5062714;28;20497;-78
2022/07/06 05:54:58;;;;;;;4.00;2.60;;;19.00;1.00;;;;;;5054770;28;20806;-78
2022/07/06 05:57:58;;;;;;;8.20;2.87;;;19.20;1.00;;;;;;5054966;28;20895;-78
2022/07/06 06:00:25;;;;;;;5.10;2.87;;;19.40;1.00;;;;;;5054790;28;20409;-75
2022/07/06 06:02:51;;;;;;;5.13;2.80;;;19.50;1.00;;;;;;5065891;28;20482;-74
2022/07/06 06:05:22;;;;;;;5.57;2.90;;;19.70;1.00;;;;;;5076356;28;20416;-74
2022/07/06 06:07:50;;;;;;;4.27;2.50;;;19.80;1.00;;;;;;5076322;28;20427;-75
2022/07/06 06:10:17;;;;;;;3.43;2.80;;;20.00;1.00;;;;;;5072562;28;20436;-75
2022/07/06 06:12:58;;;;;;;5.17;3.10;;;20.00;1.00;;;;;;5069546;28;20845;-74
2022/07/06 06:15:30;;;;;;;6.37;2.50;;;20.00;1.00;;;;;;5068673;28;20456;-75
2022/07/06 06:17:58;;;;;;;11.57;3.20;;;20.10;1.00;;;;;;5061014;28;20978;-75
2022/07/06 06:20:24;;;;;;;9.90;3.33;;;20.20;1.00;;;;;;5068955;28;20458;-75
2022/07/06 06:22:52;;;;;;;5.60;3.33;;;20.20;1.00;;;;;;5085831;28;20414;-74
2022/07/06 06:25:37;;;;;;;5.90;3.33;;;20.20;1.00;;;;;;5074801;28;20813;-75
2022/07/06 06:28:05;;;;;;;6.03;3.00;;;20.10;1.00;;;;;;5073816;28;20390;-74
2022/07/06 06:30:32;;;;;;;10.47;2.60;;;20.00;1.00;;;;;;5073523;28;21156;-74
2022/07/06 06:33:11;;;;;;;4.33;2.73;;;20.10;1.00;;;;;;5074004;28;20425;-74
2022/07/06 06:35:58;;;;;;;11.07;3.40;;;20.10;1.00;;;;;;5074214;28;20551;-74
2022/07/06 06:38:29;;;;;;;10.53;3.20;;;20.10;1.00;;;;;;5066684;28;20504;-75
2022/07/06 06:40:55;;;;;;;3.47;3.10;;;20.10;1.00;;;;;;5080449;28;20406;-75
2022/07/06 06:43:21;;;;;;;5.70;3.20;;;20.00;1.00;;;;;;5081366;28;20754;-74
2022/07/06 06:45:47;;;;;;;4.83;3.43;;;20.00;1.00;;;;;;5073810;28;20817;-75
2022/07/06 06:48:13;;;;;;;5.43;2.77;;;20.00;1.00;;;;;;5073735;28;20466;-74
2022/07/06 06:50:38;;;;;;;5.10;2.97;;;20.10;1.00;;;;;;5069102;28;20181;-74
2022/07/06 06:53:04;;;;;;;3.27;2.90;;;20.40;1.00;;;;;;5070117;28;20228;-74
2022/07/06 06:55:30;;;;;;;4.20;2.30;;;20.80;1.00;;;;;;5074878;28;20222;-75
2022/07/06 06:57:55;;;;;;;6.77;3.70;;;21.30;1.00;;;;;;5066921;28;20188;-75
2022/07/06 07:00:22;;;;;;;7.37;3.10;;;21.50;1.00;;;;;;5091950;28;20179;-74
2022/07/06 07:02:52;;;;;;;5.17;3.00;;;21.50;1.00;;;;;;5069984;28;20173;-74
2022/07/06 07:05:18;;;;;;;8.60;3.40;;;21.60;1.00;;;;;;5075535;28;20419;-74
2022/07/06 07:07:46;;;;;;;3.60;3.00;;;21.50;1.00;;;;;;5072424;28;20557;-74
2022/07/06 07:10:16;;;;;;;3.07;2.80;;;21.50;1.00;;;;;;5081860;28;20645;-74
2022/07/06 07:12:53;;;;;;;5.53;2.73;;;21.80;1.00;;;;;;5085107;28;20411;-74
2022/07/06 07:15:18;;;;;;;9.30;3.33;;;22.00;1.00;;;;;;5080607;28;21081;-75
2022/07/06 07:17:46;;;;;;;5.23;2.60;;;22.20;1.00;;;;;;5066531;28;20527;-74
2022/07/06 07:20:13;;;;;;;4.97;2.93;;;22.30;1.00;;;;;;5077222;28;20711;-74
2022/07/06 07:22:39;;;;;;;6.37;2.87;;;22.40;1.00;;;;;;5087082;28;20406;-75
2022/07/06 07:25:05;;;;;;;4.50;2.90;;;22.40;1.00;;;;;;5073129;28;20505;-74
2022/07/06 07:27:31;;;;;;;13.00;3.27;;;22.40;1.00;;;;;;5080158;28;20425;-75
2022/07/06 07:29:57;;;;;;;9.63;3.00;;;22.40;1.00;;;;;;5069189;28;20426;-74
2022/07/06 07:32:23;;;;;;;4.03;2.43;;;22.60;1.00;;;;;;5084289;28;20173;-75
2022/07/06 07:34:48;;;;;;;6.70;2.53;;;22.70;1.00;;;;;;5082736;28;20198;-75
2022/07/06 07:37:14;;;;;;;4.50;2.70;;;22.90;1.00;;;;;;5076613;28;20632;-74
2022/07/06 07:40:28;;;;;;;6.30;2.87;;;23.00;1.00;;;;;;5076741;28;20652;-80
2022/07/06 07:42:58;;;;;;;6.77;3.27;;;23.10;1.00;;;;;;5077433;28;20162;-75
2022/07/06 07:45:24;;;;;;;7.13;3.10;;;22.90;1.00;;;;;;5065889;28;20427;-75
2022/07/06 07:47:52;;;;;;;8.50;2.90;;;22.70;1.00;;;;;;5086771;28;20471;-75
2022/07/06 07:50:22;;;;;;;6.13;3.60;;;22.70;1.00;;;;;;5083757;28;20520;-75
2022/07/06 07:52:48;;;;;;;6.30;2.93;;;22.80;1.00;;;;;;5078838;28;20434;-74
2022/07/06 07:55:14;;;;;;;2.90;2.70;;;22.90;1.00;;;;;;5089172;28;20803;-74
2022/07/06 07:57:39;;;;;;;15.60;2.50;;;23.10;1.00;;;;;;5088262;28;20640;-74
2022/07/06 08:00:06;;;;;;;11.10;3.07;;;23.20;1.00;;;;;;5075708;28;20176;-74
2022/07/06 08:02:31;;;;;;;3.50;2.10;;;23.40;1.00;;;;;;5085732;28;20198;-74
2022/07/06 08:04:57;;;;;;;9.97;2.73;;;23.50;1.00;;;;;;5082577;28;20417;-74
2022/07/06 08:07:22;;;;;;;5.70;3.03;;;23.40;1.00;;;;;;5084606;28;20222;-74
2022/07/06 08:09:52;;;;;;;3.40;2.50;;;23.40;1.00;;;;;;5080840;28;20211;-75
2022/07/06 08:12:18;;;;;;;5.57;3.40;;;23.40;1.00;;;;;;5078756;28;20516;-75
2022/07/06 08:14:44;;;;;;;5.93;3.33;;;23.10;1.00;;;;;;5074016;28;20450;-74
2022/07/06 08:17:09;;;;;;;10.43;3.30;;;22.80;1.00;;;;;;5058776;28;20691;-74
2022/07/06 08:19:35;;;;;;;8.10;2.90;;;22.70;1.00;;;;;;5069300;28;20670;-74
2022/07/06 08:22:06;;;;;;;4.73;3.37;;;22.70;1.00;;;;;;5076503;28;20159;-74
2022/07/06 08:24:34;;;;;;;15.63;3.00;;;22.70;1.00;;;;;;5089902;28;20161;-74
2022/07/06 08:27:00;;;;;;;5.63;2.50;;;22.70;1.00;;;;;;5075124;28;20770;-75
2022/07/06 08:29:26;;;;;;;4.47;2.50;;;22.60;1.00;;;;;;5072682;28;20424;-74
2022/07/06 08:31:52;;;;;;;6.90;2.53;;;22.80;1.00;;;;;;5066786;28;20422;-75
2022/07/06 08:34:23;;;;;;;9.10;2.97;;;22.90;1.00;;;;;;5074482;28;20171;-75
2022/07/06 08:36:52;;;;;;;13.80;3.00;;;23.30;1.00;;;;;;5067570;28;20544;-75
2022/07/06 08:39:18;;;;;;;2.97;2.70;;;23.40;1.00;;;;;;5077281;28;20435;-75
2022/07/06 08:41:47;;;;;;;4.83;2.67;;;23.10;1.00;;;;;;5096650;28;20942;-75
2022/07/06 08:44:15;;;;;;;5.67;3.10;;;23.10;1.00;;;;;;5079018;28;20180;-74
2022/07/06 08:46:41;;;;;;;11.10;2.80;;;23.20;1.00;;;;;;5086769;28;20553;-75
2022/07/06 08:49:08;;;;;;;6.67;2.63;;;23.50;1.00;;;;;;5078701;28;20411;-75
2022/07/06 08:51:37;;;;;;;2.80;2.20;;;23.70;1.00;;;;;;5081458;28;20491;-75
2022/07/06 08:54:04;;;;;;;10.30;2.90;;;23.80;1.00;;;;;;5078701;28;20407;-74
2022/07/06 08:56:41;;;;;;;6.80;3.47;;;23.80;1.00;;;;;;5086129;28;20819;-75
2022/07/06 08:59:14;;;;;;;6.00;2.57;;;23.90;1.00;;;;;;5080380;28;20423;-74
2022/07/06 09:01:40;;;;;;;8.07;2.97;;;23.70;1.00;;;;;;5083987;28;20412;-74
2022/07/06 09:10:58;;;;;;;8.00;3.03;;;23.10;1.00;;;;;;5061878;28;20806;-80
2022/07/06 09:16:52;;;;;;;6.17;3.50;;;22.70;1.00;;;;;;5074523;28;20478;-78
2022/07/06 09:19:22;;;;;;;2.83;2.63;;;22.50;1.00;;;;;;5074548;28;20464;-79
2022/07/06 09:21:53;;;;;;;6.60;3.43;;;22.60;1.00;;;;;;5074543;28;20426;-78
2022/07/06 09:24:22;;;;;;;4.27;3.87;;;22.20;1.00;;;;;;5064772;28;20413;-77
2022/07/06 09:26:59;;;;;;;5.73;3.50;;;21.90;1.00;;;;;;5073730;28;20425;-78
2022/07/06 09:29:32;;;;;;;4.90;3.40;;;21.70;1.00;;;;;;5075532;28;20408;-78
2022/07/06 09:32:28;;;;;;;6.30;2.63;;;21.80;1.00;;;;;;5055442;28;20403;-78
2022/07/06 09:34:55;;;;;;;5.83;3.10;;;22.10;1.00;;;;;;5059402;28;20464;-79
2022/07/06 09:37:25;;;;;;;8.47;2.80;;;22.20;1.00;;;;;;5074138;28;20520;-78
2022/07/06 09:39:52;;;;;;;9.07;2.90;;;22.10;1.00;;;;;;5074239;28;20427;-78
2022/07/06 09:42:58;;;;;;;4.53;3.43;;;22.10;1.00;;;;;;5075524;28;20423;-79
2022/07/06 09:49:06;;;;;;;3.90;2.60;;;21.90;1.00;;;;;;5067794;28;20404;-86
2022/07/06 09:55:29;;;;;;;2.07;1.90;;;21.90;1.00;;;;;;5054826;28;20462;-87
2022/07/06 09:57:58;;;;;;;4.20;2.43;;;22.20;1.00;;;;;;5073811;28;20413;-86
2022/07/06 10:00:52;;;;;;;4.27;2.37;;;22.20;1.00;;;;;;5069859;28;20418;-85
2022/07/06 10:03:58;;;;;;;5.60;2.30;;;22.20;1.00;;;;;;5054927;28;20767;-78
2022/07/06 10:06:46;;;;;;;2.17;1.97;;;22.30;1.00;;;;;;5065787;28;20425;-77
2022/07/06 10:09:58;;;;;;;6.03;1.90;;;22.40;1.00;;;;;;5073919;28;20963;-78
2022/07/06 10:12:59;;;;;;;4.20;2.10;;;22.60;1.00;;;;;;5067544;28;20422;-78
2022/07/06 10:15:52;;;;;;;7.40;2.10;;;22.30;1.00;;;;;;5078121;28;20463;-78
2022/07/06 10:22:17;;;;;;;3.60;2.10;;;22.70;1.00;;;;;;5060828;28;20409;-78
2022/07/06 10:24:44;;;;;;;3.63;2.30;;;22.90;1.00;;;;;;5062827;28;20418;-78
2022/07/06 10:27:29;;;;;;;2.50;1.97;;;22.90;1.00;;;;;;5058107;28;20418;-79
2022/07/06 10:30:02;;;;;;;2.53;2.00;;;22.90;1.00;;;;;;5084198;28;20458;-78
2022/07/06 10:32:48;;;;;;;2.50;1.70;;;23.10;1.00;;;;;;5071209;28;20415;-78
2022/07/06 10:35:34;;;;;;;7.90;2.07;;;23.20;1.00;;;;;;5070068;28;20467;-78
2022/07/06 10:41:33;;;;;;;5.57;1.70;;;23.40;1.00;;;;;;5072362;28;20429;-78
2022/07/06 10:44:26;;;;;;;2.53;1.40;;;23.40;1.00;;;;;;5060469;28;20399;-78
2022/07/06 10:46:56;;;;;;;1.60;1.50;;;23.60;1.00;;;;;;5076341;28;20506;-74
2022/07/06 10:49:23;;;;;;;2.03;1.63;;;23.60;1.00;;;;;;5067930;28;20829;-74
2022/07/06 10:51:49;;;;;;;9.23;2.03;;;23.80;1.00;;;;;;5062284;28;20430;-74
2022/07/06 10:54:18;;;;;;;3.50;1.90;;;23.90;1.00;;;;;;5055330;28;20429;-74
2022/07/06 10:56:51;;;;;;;4.40;1.93;;;24.00;1.00;;;;;;5072909;28;20447;-75
2022/07/06 10:59:21;;;;;;;1.70;1.60;;;24.40;1.00;;;;;;5073323;28;20436;-74
2022/07/06 11:02:17;;;;;;;2.27;2.03;;;24.60;1.00;;;;;;5066515;28;20513;-74
2022/07/06 11:04:45;;;;;;;2.03;1.77;;;24.80;1.00;;;;;;5056534;28;20508;-74
2022/07/06 11:07:15;;;;;;;3.30;1.80;;;25.00;1.00;;;;;;5065885;28;20540;-74
2022/07/06 11:09:47;;;;;;;4.10;1.80;;;25.20;1.00;;;;;;5064258;28;20419;-74
2022/07/06 11:12:18;;;;;;;14.63;2.80;;;25.30;1.00;;;;;;5066370;28;20439;-74
2022/07/06 11:14:44;;;;;;;6.80;1.90;;;25.10;1.00;;;;;;5063307;28;20437;-74
2022/07/06 11:17:11;;;;;;;5.37;2.20;;;25.30;1.00;;;;;;5073929;28;20423;-74
2022/07/06 11:19:37;;;;;;;4.50;1.60;;;25.30;1.00;;;;;;5083352;28;20402;-74
2022/07/06 11:22:09;;;;;;;2.43;1.60;;;25.40;1.00;;;;;;5073397;28;20446;-74
2022/07/06 11:24:38;;;;;;;5.23;2.10;;;25.20;1.00;;;;;;5073382;28;20421;-74
2022/07/06 11:27:04;;;;;;;2.33;2.13;;;24.90;1.00;;;;;;5081709;28;20407;-74
2022/07/06 11:29:30;;;;;;;7.07;2.03;;;24.80;1.00;;;;;;5078602;28;20449;-74
2022/07/06 11:32:00;;;;;;;4.93;2.03;;;24.80;1.00;;;;;;5073890;28;20450;-74
2022/07/06 11:34:32;;;;;;;2.90;1.93;;;24.70;1.00;;;;;;5084569;28;20197;-74
2022/07/06 11:37:02;;;;;;;4.87;2.20;;;24.70;1.00;;;;;;5078524;28;20468;-75
2022/07/06 11:39:29;;;;;;;4.77;1.60;;;24.70;1.00;;;;;;5079911;28;20415;-74
2022/07/06 11:41:56;;;;;;;2.43;1.83;;;25.10;1.00;;;;;;5083184;28;20410;-74
2022/07/06 11:44:22;;;;;;;1.83;1.73;;;25.60;1.00;;;;;;5060820;28;20941;-74
2022/07/06 11:46:48;;;;;;;4.07;2.07;;;25.90;1.00;;;;;;5068983;28;20436;-75
2022/07/06 11:49:15;;;;;;;2.37;1.90;;;26.20;1.00;;;;;;5076865;28;20420;-74
2022/07/06 11:51:42;;;;;;;2.00;1.60;;;26.60;1.00;;;;;;5082792;28;20750;-74
2022/07/06 11:54:15;;;;;;;3.53;2.20;;;26.60;1.00;;;;;;5076841;28;20425;-74
2022/07/06 11:56:51;;;;;;;2.10;1.90;;;26.60;1.00;;;;;;5081752;28;20449;-74
2022/07/06 11:59:34;;;;;;;2.13;1.93;;;26.40;1.00;;;;;;5086777;28;20754;-75
2022/07/06 12:02:10;;;;;;;6.13;1.90;;;26.30;1.00;;;;;;5068143;28;20470;-74
2022/07/06 12:04:38;;;;;;;8.10;2.13;;;26.40;1.00;;;;;;5063995;28;20923;-75
2022/07/06 12:07:07;;;;;;;2.50;1.70;;;26.60;1.00;;;;;;5062609;28;20432;-74
2022/07/06 12:09:34;;;;;;;2.20;1.77;;;27.00;1.00;;;;;;5082934;28;20410;-75
2022/07/06 12:12:02;;;;;;;1.83;1.60;;;27.30;1.00;;;;;;5062730;28;20460;-74
2022/07/06 12:14:29;;;;;;;3.57;1.57;;;27.30;1.00;;;;;;5075864;28;20435;-74
2022/07/06 12:16:55;;;;;;;1.60;1.50;;;27.20;1.00;;;;;;5077013;28;20420;-74
2022/07/06 12:19:23;;;;;;;3.67;1.67;;;27.40;1.00;;;;;;5076515;28;20444;-74
2022/07/06 12:21:51;;;;;;;2.20;2.00;;;27.30;1.00;;;;;;5080525;28;20788;-74
2022/07/06 12:24:20;;;;;;;1.63;1.53;;;27.20;1.00;;;;;;5085816;28;20456;-75
2022/07/06 12:26:47;;;;;;;2.00;1.60;;;27.20;1.00;;;;;;5084695;28;20432;-74
2022/07/06 12:29:14;;;;;;;7.40;1.80;;;27.50;1.00;;;;;;5075529;28;20894;-74
2022/07/06 12:31:52;;;;;;;2.30;1.90;;;27.70;1.00;;;;;;5080809;28;20407;-75
2022/07/06 12:34:26;;;;;;;1.90;1.50;;;27.90;1.00;;;;;;5070207;28;20487;-74
2022/07/06 12:36:54;;;;;;;2.67;1.47;;;28.10;1.00;;;;;;5083811;28;20490;-74
2022/07/06 12:39:22;;;;;;;1.80;1.30;;;27.80;1.00;;;;;;5082471;28;20707;-74
2022/07/06 12:41:52;;;;;;;5.03;1.40;;;28.20;1.00;;;;;;5096722;28;20397;-74
2022/07/06 12:44:22;;;;;;;3.67;1.50;;;28.60;1.00;;;;;;5081026;28;20415;-74
2022/07/06 12:47:21;;;;;;;7.63;1.33;;;28.80;1.00;;;;;;5076532;28;20413;-74
2022/07/06 12:49:46;;;;;;;2.60;1.40;;;29.00;1.00;;;;;;5033872;28;20441;-74
2022/07/06 12:52:14;;;;;;;4.70;1.60;;;28.80;1.00;;;;;;5035205;28;20433;-74
2022/07/06 12:54:49;;;;;;;1.27;1.10;;;28.80;1.00;;;;;;5045526;28;20203;-74
2022/07/06 12:57:25;;;;;;;3.43;1.40;;;28.80;1.00;;;;;;5047352;28;20418;-74
2022/07/06 12:59:53;;;;;;;1.97;1.20;;;28.90;1.00;;;;;;5033796;28;20996;-75
2022/07/06 13:02:56;;;;;;;2.80;1.40;;;28.60;1.00;;;;;;5034198;28;20534;-78
2022/07/06 13:05:29;;;;;;;3.60;1.23;;;28.40;1.00;;;;;;5033724;28;20437;-78
2022/07/06 13:08:04;;;;;;;1.93;1.30;;;28.10;1.00;;;;;;5033967;28;20853;-77
2022/07/06 13:11:22;;;;;;;2.63;1.57;;;28.00;1.00;;;;;;5033819;28;20967;-78
2022/07/06 13:13:53;;;;;;;1.63;1.10;;;27.80;1.00;;;;;;5033949;28;20438;-78
2022/07/06 13:16:18;;;;;;;1.40;1.30;;;27.50;1.00;;;;;;5033443;28;21195;-78
2022/07/06 13:18:44;;;;;;;1.40;1.10;;;27.50;1.00;;;;;;5033873;28;20568;-74
2022/07/06 13:21:11;;;;;;;8.90;1.00;;;27.40;1.00;;;;;;5033292;28;20691;-74
2022/07/06 13:23:36;;;;;;;1.30;1.20;;;27.10;1.00;;;;;;5033669;28;20539;-74
2022/07/06 13:26:02;;;;;;;2.43;1.10;;;27.00;1.00;;;;;;5046498;28;20427;-74
2022/07/06 13:28:28;;;;;;;1.93;1.23;;;27.00;1.00;;;;;;5073580;28;20172;-75
2022/07/06 13:30:54;;;;;;;1.63;1.23;;;26.80;1.00;;;;;;5069642;28;20191;-73
2022/07/06 13:33:20;;;;;;;1.40;1.30;;;26.90;1.00;;;;;;5071544;28;20183;-72
2022/07/06 13:35:45;;;;;;;2.07;1.17;;;26.90;1.00;;;;;;5066304;28;20486;-76
2022/07/06 13:38:34;;;;;;;1.97;1.30;;;27.10;1.00;;;;;;5088735;28;20183;-80
2022/07/06 13:41:22;;;;;;;1.90;1.23;;;27.50;1.00;;;;;;5075735;28;20347;-78
2022/07/06 13:44:00;;;;;;;1.60;1.23;;;27.50;1.00;;;;;;5069274;28;20425;-77
2022/07/06 13:46:39;;;;;;;4.37;1.20;;;27.30;1.00;;;;;;5075262;28;20457;-78
2022/07/06 13:49:05;;;;;;;4.40;1.50;;;27.50;1.00;;;;;;5062091;28;20469;-79
2022/07/06 13:51:35;;;;;;;3.60;1.47;;;27.40;1.00;;;;;;5065901;28;20436;-79
2022/07/06 13:54:05;;;;;;;2.80;1.40;;;27.70;1.00;;;;;;5073087;28;20424;-77
2022/07/06 13:56:41;;;;;;;1.80;1.50;;;28.00;1.00;;;;;;5065078;28;20815;-77
2022/07/06 13:59:07;;;;;;;3.27;1.10;;;28.10;1.00;;;;;;5073279;28;20403;-76
2022/07/06 14:01:32;;;;;;;1.33;1.10;;;27.90;1.00;;;;;;5074828;28;20495;-77
2022/07/06 14:04:17;;;;;;;3.80;1.23;;;27.50;1.00;;;;;;5070957;28;20540;-86
2022/07/06 14:10:40;;;;;;;1.50;1.10;;;27.20;1.00;;;;;;5061167;28;20414;-80
2022/07/06 14:13:10;;;;;;;1.60;1.50;;;27.30;1.00;;;;;;5062137;28;20467;-80
2022/07/06 14:15:58;;;;;;;1.97;1.43;;;27.30;1.00;;;;;;5066272;28;20452;-80
2022/07/06 14:28:29;;;;;;;5.23;1.33;;;27.60;1.00;;;;;;5079618;28;20454;-82
2022/07/06 14:41:01;;;;;;;2.83;1.20;;;28.00;1.00;;;;;;5055111;28;20791;-75
2022/07/06 14:43:27;;;;;;;5.63;1.30;;;28.20;1.00;;;;;;5073191;28;20420;-69
2022/07/06 14:45:53;;;;;;;1.93;1.43;;;28.20;1.00;;;;;;5071284;28;20183;-69
2022/07/06 14:48:19;;;;;;;4.90;1.53;;;27.90;1.00;;;;;;5073973;28;20731;-69
2022/07/06 14:50:45;;;;;;;4.03;1.20;;;27.50;1.00;;;;;;5073658;28;20445;-69
2022/07/06 14:53:10;;;;;;;3.57;1.57;;;27.50;1.00;;;;;;5073431;28;20459;-69
2022/07/06 14:55:36;;;;;;;1.80;1.40;;;27.70;1.00;;;;;;5073650;28;20202;-70
2022/07/06 14:58:02;;;;;;;2.17;1.73;;;27.30;1.00;;;;;;5073742;28;20260;-69
2022/07/06 15:00:28;;;;;;;1.40;1.30;;;27.10;1.00;;;;;;5073491;28;20180;-69
2022/07/06 15:02:54;;;;;;;3.27;1.60;;;26.90;1.00;;;;;;5073925;28;20181;-69
2022/07/06 15:05:20;;;;;;;7.87;2.03;;;26.80;1.00;;;;;;5073475;28;20431;-69
2022/07/06 15:07:46;;;;;;;2.90;1.40;;;26.70;1.00;;;;;;5073687;28;20175;-70
2022/07/06 15:10:12;;;;;;;4.10;1.47;;;26.70;1.00;;;;;;5073146;28;20412;-69